sensor_id;sensor_type;location;lat;lon;timestamp;P1;durP1;ratioP1;P2;durP2;ratioP2
5333;SDS011;2689;50.954;7.116;2024-01-16T00:02:16;8.93;;;5.97;;
5333;SDS011;2689;50.954;7.116;2024-01-16T00:04:43;11.77;;;7.07;;
5333;SDS011;2689;50.954;7.116;2024-01-16T00:07:11;10.03;;;6.80;;
5333;SDS011;2689;50.954;7.116;2024-01-16T00:09:38;5.30;;;4.50;;
5333;SDS011;2689;50.954;7.116;2024-01-16T00:12:05;7.27;;;5.83;;
5333;SDS011;2689;50.954;7.116;2024-01-16T00:14:34;13.40;;;7.10;;
5333;SDS011;2689;50.954;7.116;2024-01-16T00:17:01;13.53;;;7.50;;
5333;SDS011;2689;50.954;7.116;2024-01-16T00:19:28;6.27;;;5.43;;
5333;SDS011;2689;50.954;7.116;2024-01-16T00:21:55;7.83;;;5.83;;
5333;SDS011;2689;50.954;7.116;2024-01-16T00:24:23;10.60;;;7.80;;
5333;SDS011;2689;50.954;7.116;2024-01-16T00:26:50;12.50;;;8.03;;
5333;SDS011;2689;50.954;7.116;2024-01-16T00:29:16;9.60;;;7.50;;
5333;SDS011;2689;50.954;7.116;2024-01-16T00:31:43;10.73;;;5.63;;
5333;SDS011;2689;50.954;7.116;2024-01-16T00:34:10;13.17;;;7.00;;
5333;SDS011;2689;50.954;7.116;2024-01-16T00:36:36;16.33;;;7.57;;
5333;SDS011;2689;50.954;7.116;2024-01-16T00:39:03;11.63;;;7.80;;
5333;SDS011;2689;50.954;7.116;2024-01-16T00:41:31;22.03;;;7.43;;
5333;SDS011;2689;50.954;7.116;2024-01-16T00:43:58;12.63;;;8.03;;
5333;SDS011;2689;50.954;7.116;2024-01-16T00:46:25;7.73;;;5.27;;
5333;SDS011;2689;50.954;7.116;2024-01-16T00:48:51;13.97;;;7.70;;
5333;SDS011;2689;50.954;7.116;2024-01-16T00:51:18;10.87;;;6.03;;
5333;SDS011;2689;50.954;7.116;2024-01-16T00:53:45;15.40;;;6.67;;
5333;SDS011;2689;50.954;7.116;2024-01-16T00:56:11;5.33;;;4.80;;
5333;SDS011;2689;50.954;7.116;2024-01-16T00:58:40;13.40;;;7.10;;
5333;SDS011;2689;50.954;7.116;2024-01-16T01:01:06;19.30;;;7.87;;
5333;SDS011;2689;50.954;7.116;2024-01-16T01:03:33;12.23;;;7.20;;
5333;SDS011;2689;50.954;7.116;2024-01-16T01:06:00;10.80;;;7.30;;
5333;SDS011;2689;50.954;7.116;2024-01-16T01:08:27;13.57;;;7.00;;
5333;SDS011;2689;50.954;7.116;2024-01-16T01:10:54;8.60;;;6.13;;
5333;SDS011;2689;50.954;7.116;2024-01-16T01:13:21;13.77;;;7.80;;
5333;SDS011;2689;50.954;7.116;2024-01-16T01:15:51;13.13;;;7.33;;
5333;SDS011;2689;50.954;7.116;2024-01-16T01:18:18;14.20;;;8.10;;
5333;SDS011;2689;50.954;7.116;2024-01-16T01:20:44;11.07;;;7.03;;
5333;SDS011;2689;50.954;7.116;2024-01-16T01:23:11;10.20;;;7.10;;
5333;SDS011;2689;50.954;7.116;2024-01-16T01:25:38;9.73;;;5.70;;
5333;SDS011;2689;50.954;7.116;2024-01-16T01:28:05;12.20;;;6.60;;
5333;SDS011;2689;50.954;7.116;2024-01-16T01:30:32;17.33;;;8.60;;
5333;SDS011;2689;50.954;7.116;2024-01-16T01:33:00;11.43;;;8.10;;
5333;SDS011;2689;50.954;7.116;2024-01-16T01:35:27;18.23;;;8.30;;
5333;SDS011;2689;50.954;7.116;2024-01-16T01:37:53;14.97;;;8.50;;
5333;SDS011;2689;50.954;7.116;2024-01-16T01:40:20;17.13;;;7.67;;
5333;SDS011;2689;50.954;7.116;2024-01-16T01:42:47;8.47;;;5.50;;
5333;SDS011;2689;50.954;7.116;2024-01-16T01:45:14;11.23;;;6.87;;
5333;SDS011;2689;50.954;7.116;2024-01-16T01:47:41;9.27;;;6.70;;
5333;SDS011;2689;50.954;7.116;2024-01-16T01:50:10;10.10;;;7.40;;
5333;SDS011;2689;50.954;7.116;2024-01-16T01:52:37;13.13;;;6.00;;
5333;SDS011;2689;50.954;7.116;2024-01-16T01:55:05;10.47;;;7.37;;
5333;SDS011;2689;50.954;7.116;2024-01-16T01:57:36;9.37;;;6.13;;
5333;SDS011;2689;50.954;7.116;2024-01-16T02:00:03;13.03;;;6.20;;
5333;SDS011;2689;50.954;7.116;2024-01-16T02:02:31;7.53;;;5.63;;
5333;SDS011;2689;50.954;7.116;2024-01-16T02:04:58;12.80;;;7.30;;
5333;SDS011;2689;50.954;7.116;2024-01-16T02:07:27;9.40;;;4.93;;
5333;SDS011;2689;50.954;7.116;2024-01-16T02:09:57;10.40;;;5.10;;
5333;SDS011;2689;50.954;7.116;2024-01-16T02:12:25;9.53;;;6.00;;
5333;SDS011;2689;50.954;7.116;2024-01-16T02:14:52;8.63;;;5.70;;
5333;SDS011;2689;50.954;7.116;2024-01-16T02:17:18;7.90;;;4.07;;
5333;SDS011;2689;50.954;7.116;2024-01-16T02:19:45;8.53;;;5.20;;
5333;SDS011;2689;50.954;7.116;2024-01-16T02:22:13;8.30;;;5.03;;
5333;SDS011;2689;50.954;7.116;2024-01-16T02:24:47;7.30;;;6.03;;
5333;SDS011;2689;50.954;7.116;2024-01-16T02:27:14;6.20;;;3.33;;
5333;SDS011;2689;50.954;7.116;2024-01-16T02:29:41;12.90;;;7.63;;
5333;SDS011;2689;50.954;7.116;2024-01-16T02:32:07;14.10;;;8.03;;
5333;SDS011;2689;50.954;7.116;2024-01-16T02:34:34;12.43;;;7.03;;
5333;SDS011;2689;50.954;7.116;2024-01-16T02:37:01;15.43;;;6.70;;
5333;SDS011;2689;50.954;7.116;2024-01-16T02:39:27;10.93;;;7.53;;
5333;SDS011;2689;50.954;7.116;2024-01-16T02:41:55;14.17;;;6.90;;
5333;SDS011;2689;50.954;7.116;2024-01-16T02:44:22;10.63;;;7.00;;
5333;SDS011;2689;50.954;7.116;2024-01-16T02:46:49;9.43;;;7.50;;
5333;SDS011;2689;50.954;7.116;2024-01-16T02:49:16;10.73;;;7.10;;
5333;SDS011;2689;50.954;7.116;2024-01-16T02:51:43;7.83;;;5.53;;
5333;SDS011;2689;50.954;7.116;2024-01-16T02:54:09;9.83;;;7.13;;
5333;SDS011;2689;50.954;7.116;2024-01-16T02:56:37;10.50;;;7.10;;
5333;SDS011;2689;50.954;7.116;2024-01-16T02:59:05;9.57;;;5.77;;
5333;SDS011;2689;50.954;7.116;2024-01-16T03:01:32;13.73;;;8.67;;
5333;SDS011;2689;50.954;7.116;2024-01-16T03:03:59;10.87;;;6.03;;
5333;SDS011;2689;50.954;7.116;2024-01-16T03:06:26;7.87;;;5.93;;
5333;SDS011;2689;50.954;7.116;2024-01-16T03:08:53;15.10;;;9.40;;
5333;SDS011;2689;50.954;7.116;2024-01-16T03:11:20;14.40;;;7.23;;
5333;SDS011;2689;50.954;7.116;2024-01-16T03:13:47;12.10;;;7.63;;
5333;SDS011;2689;50.954;7.116;2024-01-16T03:16:16;12.43;;;5.87;;
5333;SDS011;2689;50.954;7.116;2024-01-16T03:18:42;7.53;;;5.10;;
5333;SDS011;2689;50.954;7.116;2024-01-16T03:21:10;12.37;;;7.37;;
5333;SDS011;2689;50.954;7.116;2024-01-16T03:23:38;12.50;;;7.30;;
5333;SDS011;2689;50.954;7.116;2024-01-16T03:26:04;19.90;;;7.23;;
5333;SDS011;2689;50.954;7.116;2024-01-16T03:28:31;13.10;;;7.00;;
5333;SDS011;2689;50.954;7.116;2024-01-16T03:30:58;10.33;;;7.07;;
5333;SDS011;2689;50.954;7.116;2024-01-16T03:33:26;12.30;;;7.67;;
5333;SDS011;2689;50.954;7.116;2024-01-16T03:35:53;9.93;;;6.50;;
5333;SDS011;2689;50.954;7.116;2024-01-16T03:38:19;8.50;;;5.23;;
5333;SDS011;2689;50.954;7.116;2024-01-16T03:40:46;12.10;;;5.47;;
5333;SDS011;2689;50.954;7.116;2024-01-16T03:43:13;21.20;;;7.50;;
5333;SDS011;2689;50.954;7.116;2024-01-16T03:45:39;9.70;;;5.40;;
5333;SDS011;2689;50.954;7.116;2024-01-16T03:48:06;10.10;;;6.87;;
5333;SDS011;2689;50.954;7.116;2024-01-16T03:50:34;9.90;;;6.83;;
5333;SDS011;2689;50.954;7.116;2024-01-16T03:53:01;11.80;;;7.20;;
5333;SDS011;2689;50.954;7.116;2024-01-16T03:55:29;19.03;;;7.33;;
5333;SDS011;2689;50.954;7.116;2024-01-16T03:57:56;7.90;;;4.20;;
5333;SDS011;2689;50.954;7.116;2024-01-16T04:00:23;7.33;;;5.47;;
5333;SDS011;2689;50.954;7.116;2024-01-16T04:02:50;6.97;;;4.83;;
5333;SDS011;2689;50.954;7.116;2024-01-16T04:05:16;11.70;;;6.60;;
5333;SDS011;2689;50.954;7.116;2024-01-16T04:07:44;8.50;;;5.93;;
5333;SDS011;2689;50.954;7.116;2024-01-16T04:10:11;12.97;;;7.30;;
5333;SDS011;2689;50.954;7.116;2024-01-16T04:12:38;10.60;;;6.90;;
5333;SDS011;2689;50.954;7.116;2024-01-16T04:15:05;11.07;;;8.33;;
5333;SDS011;2689;50.954;7.116;2024-01-16T04:17:32;7.20;;;5.60;;
5333;SDS011;2689;50.954;7.116;2024-01-16T04:19:59;14.10;;;5.90;;
5333;SDS011;2689;50.954;7.116;2024-01-16T04:22:25;15.50;;;8.57;;
5333;SDS011;2689;50.954;7.116;2024-01-16T04:24:53;10.73;;;7.40;;
5333;SDS011;2689;50.954;7.116;2024-01-16T04:27:20;11.83;;;7.10;;
5333;SDS011;2689;50.954;7.116;2024-01-16T04:29:47;13.03;;;7.60;;
5333;SDS011;2689;50.954;7.116;2024-01-16T04:32:13;10.70;;;6.47;;
5333;SDS011;2689;50.954;7.116;2024-01-16T04:34:40;13.33;;;8.87;;
5333;SDS011;2689;50.954;7.116;2024-01-16T04:37:07;11.80;;;7.17;;
5333;SDS011;2689;50.954;7.116;2024-01-16T04:39:34;14.67;;;8.50;;
5333;SDS011;2689;50.954;7.116;2024-01-16T04:42:02;8.70;;;5.57;;
5333;SDS011;2689;50.954;7.116;2024-01-16T04:44:29;14.57;;;8.10;;
5333;SDS011;2689;50.954;7.116;2024-01-16T04:46:55;12.77;;;7.27;;
5333;SDS011;2689;50.954;7.116;2024-01-16T04:49:22;9.37;;;7.77;;
5333;SDS011;2689;50.954;7.116;2024-01-16T04:51:49;10.40;;;9.00;;
5333;SDS011;2689;50.954;7.116;2024-01-16T04:54:15;10.80;;;8.90;;
5333;SDS011;2689;50.954;7.116;2024-01-16T04:56:42;9.97;;;5.40;;
5333;SDS011;2689;50.954;7.116;2024-01-16T04:59:10;12.43;;;7.43;;
5333;SDS011;2689;50.954;7.116;2024-01-16T05:01:37;13.00;;;8.40;;
5333;SDS011;2689;50.954;7.116;2024-01-16T05:04:04;17.93;;;8.63;;
5333;SDS011;2689;50.954;7.116;2024-01-16T05:06:33;11.97;;;8.30;;
5333;SDS011;2689;50.954;7.116;2024-01-16T05:08:59;11.83;;;8.20;;
5333;SDS011;2689;50.954;7.116;2024-01-16T05:11:28;13.43;;;7.10;;
5333;SDS011;2689;50.954;7.116;2024-01-16T05:13:54;6.07;;;3.63;;
5333;SDS011;2689;50.954;7.116;2024-01-16T05:16:24;12.67;;;7.10;;
5333;SDS011;2689;50.954;7.116;2024-01-16T05:18:51;14.47;;;7.57;;
5333;SDS011;2689;50.954;7.116;2024-01-16T05:21:18;14.20;;;7.90;;
5333;SDS011;2689;50.954;7.116;2024-01-16T05:23:45;9.67;;;7.07;;
5333;SDS011;2689;50.954;7.116;2024-01-16T05:26:12;15.97;;;5.53;;
5333;SDS011;2689;50.954;7.116;2024-01-16T05:28:39;23.33;;;6.60;;
5333;SDS011;2689;50.954;7.116;2024-01-16T05:31:06;7.20;;;4.20;;
5333;SDS011;2689;50.954;7.116;2024-01-16T05:33:34;9.20;;;4.60;;
5333;SDS011;2689;50.954;7.116;2024-01-16T05:36:01;6.10;;;4.13;;
5333;SDS011;2689;50.954;7.116;2024-01-16T05:38:28;15.57;;;6.30;;
5333;SDS011;2689;50.954;7.116;2024-01-16T05:40:55;9.87;;;5.00;;
5333;SDS011;2689;50.954;7.116;2024-01-16T05:43:22;10.23;;;6.30;;
5333;SDS011;2689;50.954;7.116;2024-01-16T05:45:49;8.97;;;5.67;;
5333;SDS011;2689;50.954;7.116;2024-01-16T05:48:16;12.00;;;6.87;;
5333;SDS011;2689;50.954;7.116;2024-01-16T05:50:45;11.87;;;3.87;;
5333;SDS011;2689;50.954;7.116;2024-01-16T05:53:14;18.00;;;8.00;;
5333;SDS011;2689;50.954;7.116;2024-01-16T05:55:41;9.40;;;6.53;;
5333;SDS011;2689;50.954;7.116;2024-01-16T05:58:07;18.53;;;7.10;;
5333;SDS011;2689;50.954;7.116;2024-01-16T06:00:34;11.80;;;6.77;;
5333;SDS011;2689;50.954;7.116;2024-01-16T06:03:02;12.07;;;6.80;;
5333;SDS011;2689;50.954;7.116;2024-01-16T06:05:29;17.27;;;7.57;;
5333;SDS011;2689;50.954;7.116;2024-01-16T06:07:58;14.20;;;7.07;;
5333;SDS011;2689;50.954;7.116;2024-01-16T06:10:24;18.60;;;8.70;;
5333;SDS011;2689;50.954;7.116;2024-01-16T06:12:51;10.83;;;7.50;;
5333;SDS011;2689;50.954;7.116;2024-01-16T06:15:18;15.27;;;7.80;;
5333;SDS011;2689;50.954;7.116;2024-01-16T06:17:45;14.67;;;8.50;;
5333;SDS011;2689;50.954;7.116;2024-01-16T06:20:12;13.30;;;7.40;;
5333;SDS011;2689;50.954;7.116;2024-01-16T06:22:39;10.50;;;7.20;;
5333;SDS011;2689;50.954;7.116;2024-01-16T06:25:07;16.70;;;7.20;;
5333;SDS011;2689;50.954;7.116;2024-01-16T06:27:34;17.53;;;8.33;;
5333;SDS011;2689;50.954;7.116;2024-01-16T06:30:01;16.63;;;6.90;;
5333;SDS011;2689;50.954;7.116;2024-01-16T06:32:28;17.20;;;7.50;;
5333;SDS011;2689;50.954;7.116;2024-01-16T06:34:55;21.40;;;9.10;;
5333;SDS011;2689;50.954;7.116;2024-01-16T06:37:22;12.70;;;7.50;;
5333;SDS011;2689;50.954;7.116;2024-01-16T06:39:49;9.97;;;6.07;;
5333;SDS011;2689;50.954;7.116;2024-01-16T06:42:17;13.17;;;6.93;;
5333;SDS011;2689;50.954;7.116;2024-01-16T06:44:44;18.43;;;6.13;;
5333;SDS011;2689;50.954;7.116;2024-01-16T06:47:11;16.77;;;8.17;;
5333;SDS011;2689;50.954;7.116;2024-01-16T06:49:38;16.47;;;7.33;;
5333;SDS011;2689;50.954;7.116;2024-01-16T06:52:05;9.00;;;5.27;;
5333;SDS011;2689;50.954;7.116;2024-01-16T06:54:33;10.60;;;6.10;;
5333;SDS011;2689;50.954;7.116;2024-01-16T06:56:59;9.80;;;6.00;;
5333;SDS011;2689;50.954;7.116;2024-01-16T06:59:28;9.67;;;5.20;;
5333;SDS011;2689;50.954;7.116;2024-01-16T07:01:55;10.90;;;5.70;;
5333;SDS011;2689;50.954;7.116;2024-01-16T07:04:21;13.60;;;6.70;;
5333;SDS011;2689;50.954;7.116;2024-01-16T07:06:48;11.10;;;7.10;;
5333;SDS011;2689;50.954;7.116;2024-01-16T07:09:15;15.87;;;7.43;;
5333;SDS011;2689;50.954;7.116;2024-01-16T07:11:44;14.57;;;5.83;;
5333;SDS011;2689;50.954;7.116;2024-01-16T07:14:11;13.80;;;6.40;;
5333;SDS011;2689;50.954;7.116;2024-01-16T07:16:40;12.13;;;5.40;;
5333;SDS011;2689;50.954;7.116;2024-01-16T07:19:06;11.77;;;6.20;;
5333;SDS011;2689;50.954;7.116;2024-01-16T07:21:33;10.37;;;5.17;;
5333;SDS011;2689;50.954;7.116;2024-01-16T07:24:00;12.43;;;5.70;;
5333;SDS011;2689;50.954;7.116;2024-01-16T07:26:27;18.37;;;6.20;;
5333;SDS011;2689;50.954;7.116;2024-01-16T07:28:55;14.40;;;5.40;;
5333;SDS011;2689;50.954;7.116;2024-01-16T07:31:22;16.43;;;4.83;;
5333;SDS011;2689;50.954;7.116;2024-01-16T07:33:51;9.90;;;5.40;;
5333;SDS011;2689;50.954;7.116;2024-01-16T07:36:18;12.30;;;4.57;;
5333;SDS011;2689;50.954;7.116;2024-01-16T07:38:45;18.30;;;6.20;;
5333;SDS011;2689;50.954;7.116;2024-01-16T07:41:11;14.03;;;7.33;;
5333;SDS011;2689;50.954;7.116;2024-01-16T07:43:38;16.20;;;7.77;;
5333;SDS011;2689;50.954;7.116;2024-01-16T07:46:05;19.63;;;7.77;;
5333;SDS011;2689;50.954;7.116;2024-01-16T07:48:32;9.87;;;5.60;;
5333;SDS011;2689;50.954;7.116;2024-01-16T07:51:00;9.83;;;4.40;;
5333;SDS011;2689;50.954;7.116;2024-01-16T07:53:27;11.40;;;4.67;;
5333;SDS011;2689;50.954;7.116;2024-01-16T07:55:54;16.10;;;5.87;;
5333;SDS011;2689;50.954;7.116;2024-01-16T07:58:21;10.07;;;4.93;;
5333;SDS011;2689;50.954;7.116;2024-01-16T08:00:48;13.00;;;5.03;;
5333;SDS011;2689;50.954;7.116;2024-01-16T08:03:15;7.83;;;3.37;;
5333;SDS011;2689;50.954;7.116;2024-01-16T08:05:41;9.33;;;4.30;;
5333;SDS011;2689;50.954;7.116;2024-01-16T08:08:09;13.40;;;4.67;;
5333;SDS011;2689;50.954;7.116;2024-01-16T08:10:37;11.80;;;4.13;;
5333;SDS011;2689;50.954;7.116;2024-01-16T08:13:03;6.67;;;3.37;;
5333;SDS011;2689;50.954;7.116;2024-01-16T08:15:30;16.33;;;4.10;;
5333;SDS011;2689;50.954;7.116;2024-01-16T08:17:57;9.13;;;4.07;;
5333;SDS011;2689;50.954;7.116;2024-01-16T08:20:24;7.10;;;3.37;;
5333;SDS011;2689;50.954;7.116;2024-01-16T08:22:50;10.27;;;4.23;;
5333;SDS011;2689;50.954;7.116;2024-01-16T08:25:25;12.70;;;3.37;;
5333;SDS011;2689;50.954;7.116;2024-01-16T08:27:52;10.93;;;3.33;;
5333;SDS011;2689;50.954;7.116;2024-01-16T08:30:19;9.50;;;3.27;;
5333;SDS011;2689;50.954;7.116;2024-01-16T08:32:45;2.30;;;1.70;;
5333;SDS011;2689;50.954;7.116;2024-01-16T08:35:12;7.80;;;3.20;;
5333;SDS011;2689;50.954;7.116;2024-01-16T08:37:39;9.00;;;3.43;;
5333;SDS011;2689;50.954;7.116;2024-01-16T08:40:06;7.63;;;2.80;;
5333;SDS011;2689;50.954;7.116;2024-01-16T08:42:35;13.43;;;5.10;;
5333;SDS011;2689;50.954;7.116;2024-01-16T08:45:01;7.47;;;3.07;;
5333;SDS011;2689;50.954;7.116;2024-01-16T08:47:29;6.43;;;3.00;;
5333;SDS011;2689;50.954;7.116;2024-01-16T08:49:56;7.10;;;3.63;;
5333;SDS011;2689;50.954;7.116;2024-01-16T08:52:23;10.20;;;3.97;;
5333;SDS011;2689;50.954;7.116;2024-01-16T08:54:50;6.50;;;3.83;;
5333;SDS011;2689;50.954;7.116;2024-01-16T08:57:17;8.27;;;2.70;;
5333;SDS011;2689;50.954;7.116;2024-01-16T08:59:45;4.30;;;1.97;;
5333;SDS011;2689;50.954;7.116;2024-01-16T09:02:12;8.73;;;3.00;;
5333;SDS011;2689;50.954;7.116;2024-01-16T09:04:38;6.33;;;2.17;;
5333;SDS011;2689;50.954;7.116;2024-01-16T09:07:06;4.67;;;2.30;;
5333;SDS011;2689;50.954;7.116;2024-01-16T09:09:33;5.10;;;2.43;;
5333;SDS011;2689;50.954;7.116;2024-01-16T09:12:00;6.20;;;2.70;;
5333;SDS011;2689;50.954;7.116;2024-01-16T09:14:26;6.07;;;3.17;;
5333;SDS011;2689;50.954;7.116;2024-01-16T09:16:54;7.00;;;3.60;;
5333;SDS011;2689;50.954;7.116;2024-01-16T09:19:21;7.00;;;3.10;;
5333;SDS011;2689;50.954;7.116;2024-01-16T09:21:48;5.97;;;2.30;;
5333;SDS011;2689;50.954;7.116;2024-01-16T09:24:14;11.37;;;2.50;;
5333;SDS011;2689;50.954;7.116;2024-01-16T09:26:41;6.30;;;2.83;;
5333;SDS011;2689;50.954;7.116;2024-01-16T09:29:09;10.73;;;2.80;;
5333;SDS011;2689;50.954;7.116;2024-01-16T09:31:36;9.57;;;3.20;;
5333;SDS011;2689;50.954;7.116;2024-01-16T09:34:04;7.23;;;2.77;;
5333;SDS011;2689;50.954;7.116;2024-01-16T09:36:31;6.00;;;2.77;;
5333;SDS011;2689;50.954;7.116;2024-01-16T09:39:00;5.80;;;2.90;;
5333;SDS011;2689;50.954;7.116;2024-01-16T09:41:27;8.50;;;2.53;;
5333;SDS011;2689;50.954;7.116;2024-01-16T09:43:57;4.40;;;1.80;;
5333;SDS011;2689;50.954;7.116;2024-01-16T09:46:24;9.07;;;2.33;;
5333;SDS011;2689;50.954;7.116;2024-01-16T09:48:52;7.50;;;2.53;;
5333;SDS011;2689;50.954;7.116;2024-01-16T09:51:22;8.20;;;2.40;;
5333;SDS011;2689;50.954;7.116;2024-01-16T09:53:49;6.83;;;2.73;;
5333;SDS011;2689;50.954;7.116;2024-01-16T09:56:16;9.83;;;2.53;;
5333;SDS011;2689;50.954;7.116;2024-01-16T09:58:48;8.00;;;3.10;;
5333;SDS011;2689;50.954;7.116;2024-01-16T10:01:16;8.10;;;3.30;;
5333;SDS011;2689;50.954;7.116;2024-01-16T10:03:43;12.37;;;3.50;;
5333;SDS011;2689;50.954;7.116;2024-01-16T10:06:11;5.90;;;2.37;;
5333;SDS011;2689;50.954;7.116;2024-01-16T10:08:41;12.00;;;3.70;;
5333;SDS011;2689;50.954;7.116;2024-01-16T10:11:07;9.00;;;3.00;;
5333;SDS011;2689;50.954;7.116;2024-01-16T10:13:34;5.23;;;1.80;;
5333;SDS011;2689;50.954;7.116;2024-01-16T10:16:03;11.27;;;2.87;;
5333;SDS011;2689;50.954;7.116;2024-01-16T10:18:29;11.63;;;3.33;;
5333;SDS011;2689;50.954;7.116;2024-01-16T10:20:57;8.73;;;2.73;;
5333;SDS011;2689;50.954;7.116;2024-01-16T10:23:24;9.30;;;2.70;;
5333;SDS011;2689;50.954;7.116;2024-01-16T10:28:35;7.30;;;3.20;;
5333;SDS011;2689;50.954;7.116;2024-01-16T10:31:02;9.63;;;2.47;;
5333;SDS011;2689;50.954;7.116;2024-01-16T10:33:29;10.97;;;3.10;;
5333;SDS011;2689;50.954;7.116;2024-01-16T10:36:09;5.50;;;2.70;;
5333;SDS011;2689;50.954;7.116;2024-01-16T10:38:38;11.20;;;2.40;;
5333;SDS011;2689;50.954;7.116;2024-01-16T10:41:08;5.83;;;3.00;;
5333;SDS011;2689;50.954;7.116;2024-01-16T10:43:35;13.50;;;3.30;;
5333;SDS011;2689;50.954;7.116;2024-01-16T10:46:09;6.00;;;2.27;;
5333;SDS011;2689;50.954;7.116;2024-01-16T10:48:38;6.80;;;3.10;;
5333;SDS011;2689;50.954;7.116;2024-01-16T10:51:06;5.50;;;2.13;;
5333;SDS011;2689;50.954;7.116;2024-01-16T10:53:33;5.93;;;3.10;;
5333;SDS011;2689;50.954;7.116;2024-01-16T10:56:01;10.13;;;3.40;;
5333;SDS011;2689;50.954;7.116;2024-01-16T10:58:30;7.00;;;2.87;;
5333;SDS011;2689;50.954;7.116;2024-01-16T11:01:01;6.13;;;2.67;;
5333;SDS011;2689;50.954;7.116;2024-01-16T11:03:30;13.20;;;3.70;;
5333;SDS011;2689;50.954;7.116;2024-01-16T11:06:01;7.13;;;2.90;;
5333;SDS011;2689;50.954;7.116;2024-01-16T11:08:32;8.00;;;2.70;;
5333;SDS011;2689;50.954;7.116;2024-01-16T11:11:01;8.50;;;3.60;;
5333;SDS011;2689;50.954;7.116;2024-01-16T11:13:32;7.80;;;2.87;;
5333;SDS011;2689;50.954;7.116;2024-01-16T11:16:00;7.97;;;2.90;;
5333;SDS011;2689;50.954;7.116;2024-01-16T11:18:30;6.90;;;2.63;;
5333;SDS011;2689;50.954;7.116;2024-01-16T11:20:57;9.97;;;3.10;;
5333;SDS011;2689;50.954;7.116;2024-01-16T11:23:26;2.93;;;1.83;;
5333;SDS011;2689;50.954;7.116;2024-01-16T11:25:53;4.57;;;2.13;;
5333;SDS011;2689;50.954;7.116;2024-01-16T11:28:19;11.77;;;3.20;;
5333;SDS011;2689;50.954;7.116;2024-01-16T11:30:47;7.73;;;2.80;;
5333;SDS011;2689;50.954;7.116;2024-01-16T11:39:18;9.90;;;2.93;;
5333;SDS011;2689;50.954;7.116;2024-01-16T11:41:49;7.70;;;3.10;;
5333;SDS011;2689;50.954;7.116;2024-01-16T11:47:04;9.33;;;2.47;;
5333;SDS011;2689;50.954;7.116;2024-01-16T11:49:32;9.50;;;2.90;;
5333;SDS011;2689;50.954;7.116;2024-01-16T11:51:59;5.70;;;2.60;;
5333;SDS011;2689;50.954;7.116;2024-01-16T11:54:26;13.80;;;3.10;;
5333;SDS011;2689;50.954;7.116;2024-01-16T11:59:58;6.33;;;2.63;;
5333;SDS011;2689;50.954;7.116;2024-01-16T12:02:29;8.87;;;3.67;;
5333;SDS011;2689;50.954;7.116;2024-01-16T12:05:03;10.60;;;3.50;;
5333;SDS011;2689;50.954;7.116;2024-01-16T12:07:41;8.27;;;2.90;;
5333;SDS011;2689;50.954;7.116;2024-01-16T12:10:09;6.20;;;3.30;;
5333;SDS011;2689;50.954;7.116;2024-01-16T12:12:35;5.07;;;3.13;;
5333;SDS011;2689;50.954;7.116;2024-01-16T12:15:02;6.40;;;3.03;;
5333;SDS011;2689;50.954;7.116;2024-01-16T12:17:33;10.07;;;3.20;;
5333;SDS011;2689;50.954;7.116;2024-01-16T12:20:00;8.60;;;2.83;;
5333;SDS011;2689;50.954;7.116;2024-01-16T12:22:27;7.13;;;2.53;;
5333;SDS011;2689;50.954;7.116;2024-01-16T12:24:55;8.03;;;2.90;;
5333;SDS011;2689;50.954;7.116;2024-01-16T12:27:23;16.50;;;3.67;;
5333;SDS011;2689;50.954;7.116;2024-01-16T12:30:03;7.40;;;2.53;;
5333;SDS011;2689;50.954;7.116;2024-01-16T12:32:33;7.00;;;2.80;;
5333;SDS011;2689;50.954;7.116;2024-01-16T12:35:00;7.50;;;2.70;;
5333;SDS011;2689;50.954;7.116;2024-01-16T12:37:27;5.70;;;2.90;;
5333;SDS011;2689;50.954;7.116;2024-01-16T12:39:54;6.30;;;2.70;;
5333;SDS011;2689;50.954;7.116;2024-01-16T12:42:22;9.60;;;3.10;;
5333;SDS011;2689;50.954;7.116;2024-01-16T12:44:50;6.97;;;2.83;;
5333;SDS011;2689;50.954;7.116;2024-01-16T12:47:17;7.47;;;3.10;;
5333;SDS011;2689;50.954;7.116;2024-01-16T12:49:47;9.67;;;2.77;;
5333;SDS011;2689;50.954;7.116;2024-01-16T12:52:14;5.50;;;2.33;;
5333;SDS011;2689;50.954;7.116;2024-01-16T12:54:44;6.90;;;2.87;;
5333;SDS011;2689;50.954;7.116;2024-01-16T12:57:14;7.20;;;3.63;;
5333;SDS011;2689;50.954;7.116;2024-01-16T12:59:44;4.27;;;2.80;;
5333;SDS011;2689;50.954;7.116;2024-01-16T13:02:18;9.27;;;3.07;;
5333;SDS011;2689;50.954;7.116;2024-01-16T13:04:56;4.80;;;2.43;;
5333;SDS011;2689;50.954;7.116;2024-01-16T13:07:24;2.70;;;1.93;;
5333;SDS011;2689;50.954;7.116;2024-01-16T13:10:05;7.57;;;2.30;;
5333;SDS011;2689;50.954;7.116;2024-01-16T13:12:33;6.50;;;2.33;;
5333;SDS011;2689;50.954;7.116;2024-01-16T13:15:01;6.20;;;3.50;;
5333;SDS011;2689;50.954;7.116;2024-01-16T13:17:35;10.20;;;4.00;;
5333;SDS011;2689;50.954;7.116;2024-01-16T13:20:04;6.77;;;2.20;;
5333;SDS011;2689;50.954;7.116;2024-01-16T13:22:34;2.63;;;1.93;;
5333;SDS011;2689;50.954;7.116;2024-01-16T13:25:04;7.53;;;2.47;;
5333;SDS011;2689;50.954;7.116;2024-01-16T13:27:35;7.07;;;2.70;;
5333;SDS011;2689;50.954;7.116;2024-01-16T13:30:13;5.00;;;2.73;;
5333;SDS011;2689;50.954;7.116;2024-01-16T13:32:42;11.90;;;3.27;;
5333;SDS011;2689;50.954;7.116;2024-01-16T13:35:12;7.90;;;3.40;;
5333;SDS011;2689;50.954;7.116;2024-01-16T13:37:42;6.83;;;3.40;;
5333;SDS011;2689;50.954;7.116;2024-01-16T13:40:12;5.30;;;3.30;;
5333;SDS011;2689;50.954;7.116;2024-01-16T13:42:44;4.47;;;2.73;;
5333;SDS011;2689;50.954;7.116;2024-01-16T13:45:11;7.60;;;3.00;;
5333;SDS011;2689;50.954;7.116;2024-01-16T13:47:39;13.60;;;3.70;;
5333;SDS011;2689;50.954;7.116;2024-01-16T13:50:06;9.63;;;3.27;;
5333;SDS011;2689;50.954;7.116;2024-01-16T13:52:35;12.73;;;4.93;;
5333;SDS011;2689;50.954;7.116;2024-01-16T13:55:02;7.63;;;4.20;;
5333;SDS011;2689;50.954;7.116;2024-01-16T13:57:30;14.30;;;2.70;;
5333;SDS011;2689;50.954;7.116;2024-01-16T13:59:59;16.00;;;4.27;;
5333;SDS011;2689;50.954;7.116;2024-01-16T14:02:27;5.80;;;2.80;;
5333;SDS011;2689;50.954;7.116;2024-01-16T14:04:54;7.60;;;3.10;;
5333;SDS011;2689;50.954;7.116;2024-01-16T14:07:21;7.10;;;3.37;;
5333;SDS011;2689;50.954;7.116;2024-01-16T14:09:50;5.60;;;3.17;;
5333;SDS011;2689;50.954;7.116;2024-01-16T14:12:16;7.00;;;2.60;;
5333;SDS011;2689;50.954;7.116;2024-01-16T14:14:44;3.53;;;2.77;;
5333;SDS011;2689;50.954;7.116;2024-01-16T14:17:12;3.00;;;2.30;;
5333;SDS011;2689;50.954;7.116;2024-01-16T14:19:39;7.93;;;4.00;;
5333;SDS011;2689;50.954;7.116;2024-01-16T14:22:06;9.33;;;3.20;;
5333;SDS011;2689;50.954;7.116;2024-01-16T14:24:33;8.80;;;3.60;;
5333;SDS011;2689;50.954;7.116;2024-01-16T14:27:04;4.37;;;2.50;;
5333;SDS011;2689;50.954;7.116;2024-01-16T14:29:31;10.53;;;3.47;;
5333;SDS011;2689;50.954;7.116;2024-01-16T14:31:59;11.10;;;4.43;;
5333;SDS011;2689;50.954;7.116;2024-01-16T14:34:26;9.43;;;4.10;;
5333;SDS011;2689;50.954;7.116;2024-01-16T14:36:53;4.40;;;3.00;;
5333;SDS011;2689;50.954;7.116;2024-01-16T14:39:20;8.07;;;3.53;;
5333;SDS011;2689;50.954;7.116;2024-01-16T14:41:49;6.20;;;3.97;;
5333;SDS011;2689;50.954;7.116;2024-01-16T14:44:18;10.00;;;3.87;;
5333;SDS011;2689;50.954;7.116;2024-01-16T14:46:45;9.73;;;3.23;;
5333;SDS011;2689;50.954;7.116;2024-01-16T14:49:11;6.20;;;3.20;;
5333;SDS011;2689;50.954;7.116;2024-01-16T14:51:38;16.50;;;4.10;;
5333;SDS011;2689;50.954;7.116;2024-01-16T14:54:05;11.57;;;4.13;;
5333;SDS011;2689;50.954;7.116;2024-01-16T14:56:32;7.43;;;3.47;;
5333;SDS011;2689;50.954;7.116;2024-01-16T14:58:59;8.83;;;3.90;;
5333;SDS011;2689;50.954;7.116;2024-01-16T15:01:27;10.80;;;3.57;;
5333;SDS011;2689;50.954;7.116;2024-01-16T15:03:53;6.67;;;2.70;;
5333;SDS011;2689;50.954;7.116;2024-01-16T15:06:22;6.50;;;3.30;;
5333;SDS011;2689;50.954;7.116;2024-01-16T15:08:50;6.00;;;3.43;;
5333;SDS011;2689;50.954;7.116;2024-01-16T15:11:17;6.30;;;3.40;;
5333;SDS011;2689;50.954;7.116;2024-01-16T15:13:44;5.60;;;3.50;;
5333;SDS011;2689;50.954;7.116;2024-01-16T15:16:14;4.87;;;3.30;;
5333;SDS011;2689;50.954;7.116;2024-01-16T15:18:44;8.40;;;3.80;;
5333;SDS011;2689;50.954;7.116;2024-01-16T15:21:11;9.10;;;3.87;;
5333;SDS011;2689;50.954;7.116;2024-01-16T15:23:38;8.87;;;4.20;;
5333;SDS011;2689;50.954;7.116;2024-01-16T15:26:05;5.60;;;2.87;;